createdAt,value
2019-05-15T00:01:08.917Z,5.25
2019-05-15T00:03:58.512Z,5.12
2019-05-15T00:06:28.684Z,5.14
2019-05-15T00:08:58.831Z,5.11
2019-05-15T00:11:28.865Z,5.16
2019-05-15T00:13:58.929Z,5.18
2019-05-15T00:16:29.233Z,5.14
2019-05-15T00:18:59.190Z,5.13
2019-05-15T00:21:29.018Z,4.98
2019-05-15T00:23:58.778Z,4.93
2019-05-15T00:26:30.024Z,4.92
2019-05-15T00:29:11.688Z,4.88
2019-05-15T00:31:30.902Z,4.84
2019-05-15T00:34:00.523Z,4.82
2019-05-15T00:36:29.981Z,4.50
2019-05-15T00:38:59.459Z,4.36
2019-05-15T00:41:29.028Z,4.35
2019-05-15T00:43:58.599Z,4.40
2019-05-15T00:46:29.009Z,4.40
2019-05-15T00:48:59.186Z,4.38
2019-05-15T00:51:28.769Z,4.44
2019-05-15T00:53:59.017Z,4.36
2019-05-15T00:56:28.616Z,4.25
2019-05-15T00:58:58.827Z,4.25
2019-05-15T01:01:28.799Z,4.25
2019-05-15T01:03:58.744Z,4.28
2019-05-15T01:06:28.582Z,4.29
2019-05-15T01:08:59.572Z,4.26
2019-05-15T01:11:48.885Z,4.32
2019-05-15T01:14:18.685Z,4.30
2019-05-15T01:16:48.998Z,4.27
2019-05-15T01:19:18.702Z,4.24
2019-05-15T01:21:48.328Z,4.20
2019-05-15T01:24:18.926Z,4.19
2019-05-15T01:26:49.178Z,4.15
2019-05-15T01:29:18.816Z,4.16
2019-05-15T01:31:49.041Z,4.10
2019-05-15T01:34:18.723Z,4.07
2019-05-15T01:36:48.948Z,4.03
2019-05-15T01:39:18.689Z,3.98
2019-05-15T01:41:49.639Z,3.98
2019-05-15T01:44:19.266Z,3.88
2019-05-15T01:46:48.847Z,3.87
2019-05-15T01:49:18.761Z,3.84
2019-05-15T01:51:48.375Z,3.86
2019-05-15T01:54:18.661Z,3.86
2019-05-15T01:56:49.513Z,3.80
2019-05-15T01:59:19.156Z,3.73
2019-05-15T02:02:09.633Z,3.49
2019-05-15T02:04:39.485Z,3.36
2019-05-15T02:07:09.197Z,3.34
2019-05-15T02:09:38.765Z,3.27
2019-05-15T02:12:08.778Z,3.30
2019-05-15T02:14:39.207Z,3.34
2019-05-15T02:17:09.432Z,3.34
2019-05-15T02:19:39.286Z,3.37
2019-05-15T02:22:08.869Z,3.41
2019-05-15T02:24:39.021Z,3.43
2019-05-15T02:27:09.086Z,3.44
2019-05-15T02:29:38.707Z,3.45
2019-05-15T02:32:10.148Z,3.37
2019-05-15T02:34:39.886Z,3.38
2019-05-15T02:37:09.575Z,3.35
2019-05-15T02:39:39.217Z,3.35
2019-05-15T02:42:09.810Z,3.35
2019-05-15T02:44:40.511Z,3.35
2019-05-15T02:47:10.106Z,3.28
2019-05-15T02:49:39.848Z,3.25
2019-05-15T02:52:10.089Z,3.31
2019-05-15T02:54:40.235Z,3.34
2019-05-15T02:57:10.079Z,3.36
2019-05-15T02:59:41.340Z,3.40
2019-05-15T03:02:10.857Z,3.39
2019-05-15T03:04:41.801Z,3.22
2019-05-15T03:07:12.879Z,3.16
2019-05-15T03:09:42.385Z,3.06
2019-05-15T03:12:11.837Z,2.99
2019-05-15T03:14:42.094Z,3.00
2019-05-15T03:17:11.851Z,2.92
2019-05-15T03:19:41.972Z,2.82
2019-05-15T03:22:11.799Z,2.85
2019-05-15T03:24:41.614Z,2.83
2019-05-15T03:27:11.331Z,2.78
2019-05-15T03:29:42.235Z,2.74
2019-05-15T03:32:25.061Z,2.75
2019-05-15T03:34:47.802Z,2.78
2019-05-15T03:37:14.574Z,2.68
2019-05-15T03:39:46.913Z,2.68
2019-05-15T03:42:15.343Z,2.54
2019-05-15T03:44:46.363Z,2.54
2019-05-15T03:47:15.891Z,2.51
2019-05-15T03:49:45.601Z,2.49
2019-05-15T03:52:15.065Z,2.55
2019-05-15T03:54:44.564Z,2.52
2019-05-15T03:57:19.270Z,2.56
2019-05-15T03:59:48.932Z,2.59
2019-05-15T04:02:19.348Z,2.39
2019-05-15T04:04:50.235Z,2.46
2019-05-15T04:07:19.893Z,2.41
2019-05-15T04:09:49.584Z,2.52
2019-05-15T04:12:21.381Z,2.57
2019-05-15T04:14:51.054Z,2.65
2019-05-15T04:17:25.437Z,2.76
2019-05-15T04:19:55.362Z,2.83
2019-05-15T04:22:24.822Z,2.80
2019-05-15T04:24:58.963Z,2.79
2019-05-15T04:27:29.144Z,2.70
2019-05-15T04:29:59.259Z,2.71
2019-05-15T04:32:29.196Z,2.73
2019-05-15T04:34:59.326Z,2.84
2019-05-15T04:37:30.040Z,3.01
2019-05-15T04:39:59.980Z,3.16
2019-05-15T04:42:30.049Z,3.19
2019-05-15T04:44:59.825Z,3.40
2019-05-15T04:47:30.389Z,3.54
2019-05-15T04:50:00.005Z,3.65
2019-05-15T04:52:30.397Z,3.75
2019-05-15T04:55:00.400Z,3.90
2019-05-15T04:57:33.794Z,3.97
2019-05-15T05:00:02.457Z,4.03
2019-05-15T05:02:32.573Z,4.16
2019-05-15T05:05:02.250Z,4.30
2019-05-15T05:07:32.861Z,4.47
2019-05-15T05:10:04.021Z,4.62
2019-05-15T05:12:33.483Z,4.84
2019-05-15T05:15:03.132Z,4.95
2019-05-15T05:17:32.664Z,4.99
2019-05-15T05:20:02.136Z,5.09
2019-05-15T05:22:31.650Z,5.24
2019-05-15T05:25:01.165Z,5.15
2019-05-15T05:27:30.653Z,5.32
2019-05-15T05:30:01.633Z,5.55
2019-05-15T05:32:35.088Z,5.82
2019-05-15T05:35:03.760Z,5.83
2019-05-15T05:37:34.080Z,5.99
2019-05-15T05:40:05.052Z,6.17
2019-05-15T05:42:34.512Z,6.33
2019-05-15T05:45:04.531Z,6.59
2019-05-15T05:47:34.212Z,6.79
2019-05-15T05:50:07.791Z,6.77
2019-05-15T05:52:38.896Z,6.94
2019-05-15T05:55:08.946Z,7.13
2019-05-15T05:57:38.620Z,7.36
2019-05-15T06:00:10.232Z,7.45
2019-05-15T06:02:59.188Z,7.42
2019-05-15T06:05:28.718Z,7.56
2019-05-15T06:07:58.367Z,7.48
2019-05-15T06:10:29.355Z,7.33
2019-05-15T06:12:58.885Z,7.64
2019-05-15T06:15:28.711Z,7.95
2019-05-15T06:17:59.286Z,8.09
2019-05-15T06:20:28.901Z,7.92
2019-05-15T06:22:58.416Z,8.25
2019-05-15T06:25:30.561Z,8.22
2019-05-15T06:27:59.274Z,8.68
2019-05-15T06:30:31.251Z,8.75
2019-05-15T06:33:09.068Z,8.50
2019-05-15T06:35:32.727Z,8.59
2019-05-15T06:38:02.550Z,8.84
2019-05-15T06:40:32.200Z,8.85
2019-05-15T06:43:01.681Z,8.89
2019-05-15T06:45:31.231Z,9.23
2019-05-15T06:48:01.600Z,9.55
2019-05-15T06:50:35.268Z,9.83
2019-05-15T06:53:08.337Z,10.14
2019-05-15T06:55:38.845Z,9.98
2019-05-15T06:58:09.184Z,9.84
2019-05-15T07:00:39.228Z,10.28
2019-05-15T07:03:20.130Z,10.15
2019-05-15T07:05:40.045Z,10.29
2019-05-15T07:08:09.534Z,10.96
2019-05-15T07:10:39.160Z,11.67
2019-05-15T07:13:08.912Z,11.34
2019-05-15T07:15:58.509Z,10.82
2019-05-15T07:18:28.542Z,12.00
2019-05-15T07:20:58.712Z,13.18
2019-05-15T07:23:49.654Z,12.06
2019-05-15T07:26:18.876Z,13.83
2019-05-15T07:28:48.727Z,15.63
2019-05-15T07:31:18.346Z,15.16
2019-05-15T07:33:49.158Z,16.24
2019-05-15T07:36:19.455Z,15.15
2019-05-15T07:38:49.016Z,16.00
2019-05-15T07:41:18.696Z,16.55
2019-05-15T07:43:49.383Z,17.48
2019-05-15T07:46:19.190Z,16.71
2019-05-15T07:48:49.200Z,17.07
2019-05-15T07:51:18.834Z,15.64
2019-05-15T07:53:49.014Z,15.73
2019-05-15T07:56:18.830Z,15.59
2019-05-15T07:58:52.628Z,17.77
2019-05-15T08:01:19.800Z,14.47
2019-05-15T08:03:58.726Z,15.69
2019-05-15T08:06:20.614Z,18.13
2019-05-15T08:08:55.854Z,20.95
2019-05-15T08:11:25.523Z,22.03
2019-05-15T08:13:54.977Z,17.62
2019-05-15T08:16:24.510Z,14.85
2019-05-15T08:18:53.995Z,14.32
2019-05-15T08:21:23.523Z,15.96
2019-05-15T08:23:53.224Z,16.72
2019-05-15T08:26:22.880Z,17.35
2019-05-15T08:28:52.349Z,20.12
2019-05-15T08:31:22.148Z,21.16
2019-05-15T08:33:51.703Z,18.72
2019-05-15T08:36:21.207Z,20.76
2019-05-15T08:38:50.736Z,19.49
2019-05-15T08:41:20.265Z,19.51
2019-05-15T08:43:49.951Z,21.80
2019-05-15T08:46:19.502Z,20.21
2019-05-15T08:48:49.272Z,20.62
2019-05-15T08:51:19.469Z,22.44
2019-05-15T08:53:49.299Z,23.58
2019-05-15T08:56:19.420Z,21.28
2019-05-15T08:58:49.253Z,21.75
2019-05-15T09:01:38.406Z,18.30
2019-05-15T09:04:08.992Z,19.43
2019-05-15T09:06:41.432Z,18.00
2019-05-15T09:09:10.763Z,19.17
2019-05-15T09:11:40.217Z,20.45
2019-05-15T09:14:09.846Z,20.19
2019-05-15T09:16:39.364Z,16.15
2019-05-15T09:19:08.852Z,17.85
2019-05-15T09:21:38.905Z,16.52
2019-05-15T09:24:09.462Z,19.56
2019-05-15T09:26:40.401Z,18.35
2019-05-15T09:29:10.163Z,20.76
2019-05-15T09:31:59.218Z,22.99
2019-05-15T09:34:46.439Z,22.03
2019-05-15T09:37:00.145Z,16.92
2019-05-15T09:39:29.755Z,16.81
2019-05-15T09:41:59.419Z,20.36
2019-05-15T09:44:28.882Z,18.60
2019-05-15T09:46:58.634Z,21.19
2019-05-15T09:49:29.847Z,22.79
2019-05-15T09:51:59.405Z,23.35
2019-05-15T09:54:29.526Z,21.65
2019-05-15T09:57:18.910Z,20.64
2019-05-15T09:59:48.913Z,18.48
2019-05-15T10:02:19.108Z,17.83
2019-05-15T10:05:05.107Z,20.62
2019-05-15T10:07:20.359Z,22.40
2019-05-15T10:09:52.309Z,23.60
2019-05-15T10:12:21.149Z,23.24
2019-05-15T10:14:50.743Z,19.08
2019-05-15T10:17:22.689Z,17.09
2019-05-15T10:19:52.553Z,19.00
2019-05-15T10:22:22.119Z,19.89
2019-05-15T10:24:51.617Z,19.96
2019-05-15T10:27:21.129Z,21.51
2019-05-15T10:29:50.671Z,21.18
2019-05-15T10:32:20.284Z,17.03
2019-05-15T10:34:49.789Z,19.67
2019-05-15T10:37:19.371Z,20.94
2019-05-15T10:39:52.592Z,19.29
2019-05-15T10:42:20.605Z,19.84
2019-05-15T10:44:50.145Z,20.49
2019-05-15T10:47:20.690Z,21.75
2019-05-15T10:49:50.180Z,19.67
2019-05-15T10:52:19.909Z,20.56
2019-05-15T10:54:49.525Z,19.93
2019-05-15T10:57:19.099Z,21.41
2019-05-15T10:59:48.638Z,22.47
2019-05-15T11:02:19.246Z,21.17
2019-05-15T11:04:49.020Z,21.55
2019-05-15T11:07:19.472Z,20.73
2019-05-15T11:09:49.458Z,22.31
2019-05-15T11:12:19.180Z,22.81
2019-05-15T11:14:49.454Z,21.32
2019-05-15T11:17:19.087Z,21.28
2019-05-15T11:19:49.771Z,20.90
2019-05-15T11:22:19.848Z,21.46
2019-05-15T11:24:52.804Z,21.61
2019-05-15T11:27:20.559Z,24.05
2019-05-15T11:29:50.124Z,23.16
2019-05-15T11:32:19.787Z,21.40
2019-05-15T11:34:49.408Z,20.83
2019-05-15T11:37:19.137Z,19.25
2019-05-15T11:39:48.612Z,22.05
2019-05-15T11:42:20.291Z,21.50
2019-05-15T11:44:53.162Z,22.94
2019-05-15T11:47:24.303Z,20.35
2019-05-15T11:49:53.831Z,22.13
2019-05-15T11:52:23.508Z,22.21
2019-05-15T11:55:12.562Z,23.51
2019-05-15T11:57:46.962Z,23.59
2019-05-15T12:00:19.206Z,21.65
2019-05-15T12:03:05.061Z,19.52
2019-05-15T12:05:38.283Z,21.12
2019-05-15T12:08:29.031Z,22.11
2019-05-15T12:10:59.160Z,21.90
2019-05-15T12:13:29.075Z,18.50
2019-05-15T12:15:59.023Z,18.53
2019-05-15T12:18:28.856Z,20.83
2019-05-15T12:20:59.640Z,20.36
2019-05-15T12:23:29.580Z,20.09
2019-05-15T12:25:59.864Z,18.83
2019-05-15T12:28:29.913Z,19.33
2019-05-15T12:30:59.989Z,21.52
2019-05-15T12:33:29.683Z,22.82
2019-05-15T12:35:59.322Z,21.53
2019-05-15T12:38:29.205Z,22.32
2019-05-15T13:01:35.733Z,23.54
2019-05-15T13:04:05.269Z,23.70
2019-05-15T13:06:47.421Z,22.75
2019-05-15T13:09:08.692Z,23.22
2019-05-15T13:11:39.900Z,23.34
2019-05-15T13:14:12.029Z,22.90
2019-05-15T13:16:41.550Z,21.49
2019-05-15T13:19:12.059Z,22.37
2019-05-15T13:21:41.695Z,23.59
2019-05-15T13:24:11.795Z,22.11
2019-05-15T13:26:41.421Z,20.36
2019-05-15T13:29:10.905Z,20.54
2019-05-15T13:31:40.516Z,21.02
2019-05-15T13:34:10.198Z,21.50
2019-05-15T13:36:39.666Z,21.81
2019-05-15T13:39:09.228Z,22.14
2019-05-15T13:41:38.801Z,21.95
2019-05-15T13:44:09.120Z,22.33
2019-05-15T13:46:38.658Z,19.96
2019-05-15T13:49:08.474Z,21.49
2019-05-15T13:51:38.606Z,21.21
2019-05-15T13:54:08.833Z,22.45
2019-05-15T13:56:38.556Z,22.34
2019-05-15T13:59:08.224Z,20.01
2019-05-15T14:01:39.303Z,20.86
2019-05-15T14:04:09.199Z,22.19
2019-05-15T14:06:44.254Z,20.27
2019-05-15T14:09:13.739Z,20.87
2019-05-15T14:11:48.915Z,18.87
2019-05-15T14:14:16.933Z,19.07
2019-05-15T14:16:55.172Z,20.35
2019-05-15T14:19:24.664Z,19.91
2019-05-15T14:21:54.196Z,19.35
2019-05-15T14:24:43.406Z,20.82
2019-05-15T14:27:12.887Z,18.99
2019-05-15T14:29:42.654Z,18.48
2019-05-15T14:32:12.309Z,18.61
2019-05-15T14:34:41.804Z,19.10
2019-05-15T14:37:11.303Z,18.90
2019-05-15T14:39:40.775Z,19.26
2019-05-15T14:42:10.275Z,19.55
2019-05-15T14:44:39.744Z,19.75
2019-05-15T14:47:11.868Z,18.06
2019-05-15T14:49:44.493Z,19.73
2019-05-15T14:52:12.695Z,20.45
2019-05-15T14:54:42.202Z,21.90
2019-05-15T14:57:11.671Z,19.91
2019-05-15T14:59:41.163Z,19.84
2019-05-15T15:02:10.698Z,18.19
2019-05-15T15:04:40.196Z,17.68
2019-05-15T15:07:09.656Z,16.92
2019-05-15T15:09:39.151Z,17.69
2019-05-15T15:12:08.634Z,18.51
2019-05-15T15:14:38.376Z,18.73
2019-05-15T15:17:07.898Z,17.82
2019-05-15T15:19:38.903Z,17.05
2019-05-15T15:22:08.798Z,16.93
2019-05-15T15:24:41.558Z,16.26
2019-05-15T15:27:11.712Z,15.91
2019-05-15T15:29:41.251Z,16.37
2019-05-15T15:32:10.759Z,16.54
2019-05-15T15:34:40.247Z,16.65
2019-05-15T15:37:09.718Z,17.14
2019-05-15T15:39:39.300Z,16.61
2019-05-15T15:42:10.304Z,16.89
2019-05-15T15:44:39.782Z,16.06
2019-05-15T15:47:09.311Z,15.40
2019-05-15T15:49:38.982Z,15.52
2019-05-15T15:52:08.885Z,16.00
2019-05-15T15:54:39.536Z,16.11
2019-05-15T15:57:15.827Z,16.31
2019-05-15T15:59:45.310Z,16.32
2019-05-15T16:02:14.849Z,16.53
2019-05-15T16:04:44.319Z,16.37
2019-05-15T16:07:17.803Z,16.78
2019-05-15T16:09:48.342Z,15.79
2019-05-15T16:12:18.606Z,16.32
2019-05-15T16:14:48.848Z,15.50
2019-05-15T16:17:18.388Z,15.76
2019-05-15T16:19:49.174Z,15.41
2019-05-15T16:22:19.066Z,15.41
2019-05-15T16:24:49.262Z,15.44
2019-05-15T16:27:19.160Z,15.45
2019-05-15T16:29:48.680Z,16.05
2019-05-15T16:32:21.544Z,15.35
2019-05-15T16:34:49.258Z,15.84
2019-05-15T16:37:19.100Z,16.15
2019-05-15T16:39:48.860Z,15.52
2019-05-15T16:42:18.591Z,15.96
2019-05-15T16:44:49.028Z,16.03
2019-05-15T16:47:38.774Z,15.96
2019-05-15T16:50:10.564Z,15.72
2019-05-15T16:52:40.164Z,15.89
2019-05-15T16:55:11.421Z,15.80
2019-05-15T16:57:40.950Z,15.58
2019-05-15T17:00:12.036Z,14.90
2019-05-15T17:02:41.501Z,14.80
2019-05-15T17:05:11.896Z,14.71
2019-05-15T17:07:48.897Z,15.06
2019-05-15T17:10:18.850Z,15.03
2019-05-15T17:12:49.296Z,15.19
2019-05-15T17:15:19.859Z,14.42
2019-05-15T17:17:49.655Z,14.46
2019-05-15T17:20:19.897Z,14.87
2019-05-15T17:22:49.380Z,14.89
2019-05-15T17:25:19.037Z,15.14
2019-05-15T17:27:48.981Z,15.29
2019-05-15T17:30:19.470Z,14.76
2019-05-15T17:32:49.479Z,14.94
2019-05-15T17:35:19.277Z,14.45
2019-05-15T17:37:51.643Z,14.81
2019-05-15T17:40:21.505Z,14.77
2019-05-15T17:42:50.961Z,14.67
2019-05-15T17:45:20.947Z,14.98
2019-05-15T17:47:50.838Z,15.29
2019-05-15T17:50:20.643Z,15.21
2019-05-15T17:52:50.121Z,14.79
2019-05-15T17:55:21.353Z,14.88
2019-05-15T17:57:57.171Z,14.52
2019-05-15T18:00:22.559Z,14.62
2019-05-15T18:02:52.369Z,14.28
2019-05-15T18:05:24.957Z,14.52
2019-05-15T18:07:53.072Z,14.84
2019-05-15T18:10:22.572Z,14.93
2019-05-15T18:12:52.092Z,14.65
2019-05-15T18:15:21.640Z,14.99
2019-05-15T18:17:51.393Z,15.13
2019-05-15T18:20:25.531Z,15.08
2019-05-15T18:23:04.104Z,15.20
2019-05-15T18:25:33.591Z,14.81
2019-05-15T18:28:04.088Z,14.81
2019-05-15T18:30:33.973Z,14.29
2019-05-15T18:33:03.492Z,14.27
2019-05-15T18:35:33.426Z,14.36
2019-05-15T18:38:03.117Z,13.82
2019-05-15T18:40:51.920Z,14.02
2019-05-15T18:43:21.546Z,13.63
2019-05-15T18:45:51.070Z,13.62
2019-05-15T18:48:20.578Z,13.70
2019-05-15T18:50:50.085Z,13.61
2019-05-15T18:53:19.603Z,13.64
2019-05-15T18:55:49.113Z,13.73
2019-05-15T18:58:19.245Z,13.41
2019-05-15T19:00:49.073Z,13.36
2019-05-15T19:03:22.630Z,13.29
2019-05-15T19:05:49.857Z,13.24
2019-05-15T19:08:19.432Z,12.81
2019-05-15T19:10:48.931Z,12.75
2019-05-15T19:13:18.582Z,12.85
2019-05-15T19:16:08.295Z,12.71
2019-05-15T19:18:38.507Z,12.62
2019-05-15T19:21:08.224Z,12.48
2019-05-15T19:23:58.442Z,12.42
2019-05-15T19:26:29.128Z,12.25
2019-05-15T19:28:59.339Z,12.18
2019-05-15T19:31:30.657Z,12.15
2019-05-15T19:34:19.891Z,12.08
2019-05-15T19:36:49.369Z,11.88
2019-05-15T19:39:18.883Z,11.83
2019-05-15T19:41:48.503Z,11.73
2019-05-15T19:44:18.123Z,11.85
2019-05-15T19:46:48.095Z,11.78
2019-05-15T19:49:18.058Z,11.58
2019-05-15T19:52:08.508Z,11.47
2019-05-15T19:54:38.190Z,11.51
2019-05-15T19:57:09.153Z,11.38
2019-05-15T19:59:58.414Z,11.33
2019-05-15T20:02:28.570Z,11.34
2019-05-15T20:04:58.443Z,11.20
2019-05-15T20:07:28.800Z,11.28
2019-05-15T20:09:58.529Z,11.08
2019-05-15T20:12:28.174Z,11.05
2019-05-15T20:14:58.348Z,11.05
2019-05-15T20:17:27.946Z,10.94
2019-05-15T20:19:58.056Z,10.89
2019-05-15T20:22:28.332Z,10.88
2019-05-15T20:24:58.763Z,10.84
2019-05-15T20:27:28.690Z,10.68
2019-05-15T20:29:58.548Z,10.64
2019-05-15T20:32:28.106Z,10.61
2019-05-15T20:34:57.858Z,10.66
2019-05-15T20:37:28.942Z,10.70
2019-05-15T20:39:58.508Z,10.50
2019-05-15T20:42:28.362Z,10.38
2019-05-15T20:44:58.020Z,10.31
2019-05-15T20:47:28.031Z,10.34
2019-05-15T20:49:57.719Z,10.19
2019-05-15T20:52:28.508Z,10.09
2019-05-15T20:54:59.313Z,10.02
2019-05-15T20:57:29.018Z,9.96
2019-05-15T20:59:58.741Z,10.05
2019-05-15T21:02:29.021Z,9.99
2019-05-15T21:05:00.648Z,10.00
2019-05-15T21:07:38.671Z,9.87
2019-05-15T21:10:08.560Z,9.77
2019-05-15T21:12:41.063Z,9.72
2019-05-15T21:15:10.832Z,9.74
2019-05-15T21:17:41.638Z,9.56
2019-05-15T21:20:12.168Z,9.66
2019-05-15T21:22:41.703Z,9.48
2019-05-15T21:25:11.680Z,9.42
2019-05-15T21:27:43.325Z,9.33
2019-05-15T21:30:15.619Z,9.36
2019-05-15T21:32:45.094Z,9.24
2019-05-15T21:35:14.858Z,9.36
2019-05-15T21:37:44.339Z,9.23
2019-05-15T21:40:14.233Z,9.03
2019-05-15T21:42:43.735Z,8.86
2019-05-15T21:45:14.637Z,8.79
2019-05-15T21:47:44.304Z,8.74
2019-05-15T21:50:15.291Z,8.75
2019-05-15T21:52:44.784Z,8.57
2019-05-15T21:55:14.638Z,8.54
2019-05-15T21:57:44.178Z,8.41
2019-05-15T22:00:18.468Z,8.38
2019-05-15T22:03:07.632Z,8.39
2019-05-15T22:05:38.472Z,8.40
2019-05-15T22:08:08.275Z,8.39
2019-05-15T22:10:38.903Z,8.32
2019-05-15T22:13:08.562Z,8.30
2019-05-15T22:15:59.297Z,8.23
2019-05-15T22:18:47.961Z,8.13
2019-05-15T22:21:18.591Z,8.06
2019-05-15T22:23:48.212Z,8.05
2019-05-15T22:26:18.492Z,8.04
2019-05-15T22:28:49.232Z,8.08
2019-05-15T22:31:20.365Z,8.04
2019-05-15T22:33:50.101Z,8.03
2019-05-15T22:36:19.749Z,8.00
2019-05-15T22:38:50.391Z,7.86
2019-05-15T22:41:19.917Z,7.58
2019-05-15T22:43:49.400Z,7.61
2019-05-15T22:46:18.923Z,7.57
2019-05-15T22:49:07.723Z,6.91
2019-05-15T22:51:38.234Z,7.49
2019-05-15T22:54:08.670Z,7.35
2019-05-15T22:56:38.410Z,7.28
2019-05-15T22:59:08.619Z,7.20
2019-05-15T23:01:41.690Z,7.06
2019-05-15T23:04:11.362Z,7.04
2019-05-15T23:06:46.519Z,7.00
2019-05-15T23:09:16.006Z,6.97
2019-05-15T23:11:45.562Z,6.87
2019-05-15T23:14:15.043Z,6.90
2019-05-15T23:16:44.708Z,6.87
2019-05-15T23:19:14.159Z,6.84
2019-05-15T23:21:43.611Z,6.83
2019-05-15T23:24:13.140Z,6.82
2019-05-15T23:26:42.628Z,6.81
2019-05-15T23:29:12.082Z,6.72
2019-05-15T23:31:41.583Z,6.68
2019-05-15T23:34:11.039Z,6.62
2019-05-15T23:36:41.670Z,6.52
2019-05-15T23:39:11.125Z,6.45
2019-05-15T23:41:40.604Z,6.39
2019-05-15T23:44:12.734Z,6.31
2019-05-15T23:46:42.276Z,6.17
2019-05-15T23:49:11.741Z,6.10
2019-05-15T23:51:44.150Z,6.09
2019-05-15T23:54:32.975Z,6.03
2019-05-15T23:57:02.496Z,6.09
2019-05-15T23:59:31.995Z,6.02
